Time;durP1;ratioP1;P1;durP2;ratioP2;P2;SDS_P1;SDS_P2;PMS_P1;PMS_P2;Temp;Humidity;BMP_temperature;BMP_pressure;BME280_temperature;BME280_humidity;BME280_pressure;Samples;Min_cycle;Max_cycle;Signal;HPM_P1;HPM_P2
2022/09/26 00:02:11;;;;;;;6.10;5.50;;;12.90;99.90;;;;;;5085290;28;20480;-78
2022/09/26 00:04:43;;;;;;;5.87;5.37;;;12.90;99.90;;;;;;5090710;28;20956;-77
2022/09/26 00:07:14;;;;;;;8.67;4.93;;;13.00;99.90;;;;;;5090116;28;20499;-79
2022/09/26 00:09:46;;;;;;;6.80;5.30;;;13.00;99.90;;;;;;5080748;28;20429;-80
2022/09/26 00:12:19;;;;;;;9.03;5.80;;;13.10;99.90;;;;;;5078549;28;20421;-82
2022/09/26 00:14:49;;;;;;;6.50;5.43;;;13.10;99.90;;;;;;5078407;28;20522;-79
2022/09/26 00:17:24;;;;;;;6.57;5.60;;;13.00;99.90;;;;;;5078947;28;20434;-79
2022/09/26 00:19:59;;;;;;;5.83;4.80;;;13.00;1.80;;;;;;5078312;28;20512;-79
2022/09/26 00:22:32;;;;;;;6.00;4.80;;;12.90;1.00;;;;;;5077567;28;20488;-79
2022/09/26 00:25:04;;;;;;;5.83;5.33;;;12.90;1.00;;;;;;5077623;28;20487;-79
2022/09/26 00:27:41;;;;;;;6.80;4.77;;;12.90;1.00;;;;;;5078959;28;20443;-81
2022/09/26 00:30:16;;;;;;;6.63;4.53;;;13.00;99.90;;;;;;5078943;28;20772;-80
2022/09/26 00:32:47;;;;;;;7.40;3.93;;;12.90;1.00;;;;;;5077086;28;20424;-80
2022/09/26 00:35:21;;;;;;;4.53;3.83;;;12.90;1.00;;;;;;5076182;28;20407;-79
2022/09/26 00:37:59;;;;;;;6.33;4.00;;;12.90;1.00;;;;;;5075965;28;20452;-79
2022/09/26 00:40:32;;;;;;;3.73;3.43;;;12.90;1.00;;;;;;5076750;28;20411;-81
2022/09/26 00:43:02;;;;;;;4.23;3.43;;;12.90;1.00;;;;;;5076037;28;20491;-80
2022/09/26 00:45:30;;;;;;;4.83;3.53;;;12.90;1.00;;;;;;5077075;28;20518;-80
2022/09/26 00:48:01;;;;;;;3.20;2.90;;;12.90;1.00;;;;;;5082989;28;20419;-79
2022/09/26 00:50:31;;;;;;;3.43;3.17;;;12.80;1.00;;;;;;5085743;28;20430;-79
2022/09/26 00:53:02;;;;;;;6.20;3.60;;;12.70;1.00;;;;;;5086721;28;20521;-79
2022/09/26 00:55:33;;;;;;;4.27;3.87;;;12.60;63.50;;;;;;5086781;28;20433;-78
2022/09/26 00:58:05;;;;;;;7.17;3.20;;;12.60;99.90;;;;;;5081911;28;20498;-79
2022/09/26 01:00:31;;;;;;;3.53;3.10;;;12.50;99.90;;;;;;5083806;28;20414;-80
2022/09/26 01:02:58;;;;;;;4.87;4.47;;;12.50;99.90;;;;;;5089786;22;20489;-77
2022/09/26 01:05:25;;;;;;;4.67;2.63;;;12.50;99.90;;;;;;5033931;28;20431;-78
2022/09/26 01:07:53;;;;;;;4.47;3.10;;;12.50;99.90;;;;;;5034542;28;20446;-77
2022/09/26 01:10:20;;;;;;;7.33;3.57;;;12.50;99.90;;;;;;5037536;28;20475;-77
2022/09/26 01:12:47;;;;;;;5.53;4.40;;;12.30;99.90;;;;;;5035603;28;20446;-76
2022/09/26 01:15:15;;;;;;;6.07;3.70;;;12.40;99.90;;;;;;5033863;28;20976;-77
2022/09/26 01:17:44;;;;;;;5.33;3.60;;;12.40;99.90;;;;;;5036583;28;20417;-78
2022/09/26 01:20:25;;;;;;;3.80;3.23;;;12.50;99.90;;;;;;5044183;28;20445;-78
2022/09/26 01:23:27;;;;;;;3.63;3.33;;;12.70;99.90;;;;;;5041571;28;20462;-78
2022/09/26 01:26:22;;;;;;;4.30;3.90;;;12.50;99.90;;;;;;5045842;28;20460;-78
2022/09/26 01:29:20;;;;;;;5.37;3.70;;;12.60;99.90;;;;;;5046113;28;20522;-77
2022/09/26 01:34:49;;;;;;;4.23;3.63;;;12.70;99.90;;;;;;5043182;28;20778;-77
2022/09/26 01:37:29;;;;;;;4.90;3.20;;;12.70;99.90;;;;;;5038044;28;20960;-76
2022/09/26 01:40:07;;;;;;;4.13;3.70;;;12.60;99.90;;;;;;5040399;28;20418;-77
2022/09/26 01:42:42;;;;;;;4.60;3.47;;;12.60;99.90;;;;;;5042492;28;20462;-77
2022/09/26 01:45:16;;;;;;;5.10;4.20;;;12.60;99.90;;;;;;5042621;28;20832;-77
2022/09/26 01:47:48;;;;;;;4.73;3.60;;;12.50;99.90;;;;;;5049168;28;20442;-77
2022/09/26 01:50:22;;;;;;;6.03;3.70;;;12.60;99.90;;;;;;5049773;28;20438;-77
2022/09/26 01:52:55;;;;;;;3.80;3.47;;;12.30;99.90;;;;;;5043858;28;20401;-78
2022/09/26 01:55:27;;;;;;;4.33;3.80;;;12.50;99.90;;;;;;5038414;28;20913;-77
2022/09/26 01:58:01;;;;;;;4.17;3.77;;;12.40;99.90;;;;;;5037649;28;20439;-78
2022/09/26 02:00:29;;;;;;;9.87;3.90;;;12.50;99.90;;;;;;5038545;28;20430;-77
2022/09/26 02:02:59;;;;;;;3.97;3.57;;;12.60;99.90;;;;;;5038113;28;20481;-77
2022/09/26 02:05:31;;;;;;;5.50;3.37;;;12.40;99.90;;;;;;5038192;28;21001;-77
2022/09/26 02:08:03;;;;;;;3.57;3.27;;;12.40;99.90;;;;;;5037920;28;20427;-77
2022/09/26 02:10:35;;;;;;;3.77;3.47;;;12.50;99.90;;;;;;5037848;28;20389;-78
2022/09/26 02:13:09;;;;;;;4.23;3.70;;;12.40;99.90;;;;;;5039213;28;20463;-78
2022/09/26 02:15:37;;;;;;;5.50;3.73;;;12.30;99.90;;;;;;5037841;28;20441;-77
2022/09/26 02:18:14;;;;;;;4.00;3.20;;;12.30;99.90;;;;;;5037566;28;20447;-77
2022/09/26 02:20:47;;;;;;;5.07;3.90;;;12.20;99.90;;;;;;5037222;28;20426;-76
2022/09/26 02:23:14;;;;;;;4.17;3.70;;;12.20;99.90;;;;;;5036717;28;21009;-76
2022/09/26 02:25:41;;;;;;;3.90;3.50;;;12.30;99.90;;;;;;5038159;28;20450;-76
2022/09/26 02:28:08;;;;;;;9.13;3.97;;;12.30;99.90;;;;;;5037569;28;20450;-76
2022/09/26 02:30:36;;;;;;;5.40;5.00;;;12.30;99.90;;;;;;5038404;28;20446;-77
2022/09/26 02:33:04;;;;;;;3.97;3.67;;;12.30;99.90;;;;;;5048175;28;20473;-78
2022/09/26 02:38:16;;;;;;;3.77;3.47;;;12.30;99.90;;;;;;5044499;28;20491;-77
2022/09/26 02:40:51;;;;;;;3.47;3.27;;;12.20;99.90;;;;;;5041086;28;20869;-77
2022/09/26 02:43:40;;;;;;;3.30;3.10;;;12.30;99.90;;;;;;5037616;28;20494;-77
2022/09/26 02:46:31;;;;;;;5.07;3.63;;;12.30;99.90;;;;;;5036686;28;20405;-77
2022/09/26 02:49:19;;;;;;;3.83;3.37;;;12.30;99.90;;;;;;5033520;28;20437;-77
2022/09/26 02:52:02;;;;;;;4.20;3.87;;;12.30;99.90;;;;;;5035620;28;20798;-77
2022/09/26 02:54:38;;;;;;;5.90;3.77;;;12.30;99.90;;;;;;5034976;28;20824;-77
2022/09/26 02:57:14;;;;;;;4.73;3.47;;;12.20;99.90;;;;;;5035911;28;20494;-77
2022/09/26 02:59:53;;;;;;;7.00;3.57;;;12.30;99.90;;;;;;5035440;28;20888;-77
2022/09/26 03:02:27;;;;;;;4.50;4.10;;;12.30;99.90;;;;;;5035660;28;20446;-77
2022/09/26 03:05:00;;;;;;;5.17;4.13;;;12.30;99.90;;;;;;5035265;28;20486;-77
2022/09/26 03:07:32;;;;;;;6.23;3.80;;;12.30;99.90;;;;;;5036190;28;20914;-78
2022/09/26 03:10:02;;;;;;;4.23;3.83;;;12.20;99.90;;;;;;5036892;28;20435;-77
2022/09/26 03:12:31;;;;;;;5.77;3.77;;;12.30;99.90;;;;;;5036159;28;20474;-78
2022/09/26 03:14:59;;;;;;;4.67;3.57;;;12.30;99.90;;;;;;5036114;28;20437;-78
2022/09/26 03:17:27;;;;;;;4.50;3.80;;;12.30;99.90;;;;;;5036250;28;20425;-77
2022/09/26 03:20:01;;;;;;;4.47;3.93;;;12.30;99.90;;;;;;5035991;28;20829;-77
2022/09/26 03:22:28;;;;;;;4.00;3.20;;;12.30;99.90;;;;;;5036471;28;20419;-77
2022/09/26 03:24:58;;;;;;;3.73;3.43;;;12.20;99.90;;;;;;5035859;28;20856;-77
2022/09/26 03:27:25;;;;;;;5.90;4.80;;;12.20;99.90;;;;;;5036656;28;20455;-77
2022/09/26 03:29:52;;;;;;;10.07;3.67;;;12.20;99.90;;;;;;5037418;28;20447;-77
2022/09/26 03:32:20;;;;;;;4.20;3.27;;;12.20;99.90;;;;;;5037245;28;20421;-77
2022/09/26 03:34:47;;;;;;;4.30;3.93;;;12.30;99.90;;;;;;5041515;28;20466;-77
2022/09/26 03:37:15;;;;;;;15.90;5.60;;;12.40;99.90;;;;;;5048483;28;20470;-77
2022/09/26 03:39:43;;;;;;;4.40;4.00;;;12.50;99.90;;;;;;5039719;28;20421;-77
2022/09/26 03:42:09;;;;;;;4.00;3.50;;;12.40;99.90;;;;;;5036422;28;20429;-78
2022/09/26 03:44:36;;;;;;;8.70;4.00;;;12.50;99.90;;;;;;5035386;28;20487;-78
2022/09/26 03:47:03;;;;;;;10.73;4.13;;;12.40;99.90;;;;;;5035169;28;20981;-78
2022/09/26 03:49:29;;;;;;;7.63;3.90;;;12.30;99.90;;;;;;5034844;28;20534;-77
2022/09/26 03:51:56;;;;;;;4.30;3.77;;;12.30;99.90;;;;;;5034641;28;20919;-77
2022/09/26 03:54:24;;;;;;;7.50;4.10;;;12.20;99.90;;;;;;5034714;28;20446;-77
2022/09/26 03:56:51;;;;;;;5.07;3.93;;;12.30;99.90;;;;;;5034691;28;20500;-77
2022/09/26 03:59:17;;;;;;;5.80;3.83;;;12.30;99.90;;;;;;5034358;28;20421;-78
2022/09/26 04:01:44;;;;;;;4.90;3.97;;;12.30;99.90;;;;;;5034764;28;20509;-78
2022/09/26 04:04:15;;;;;;;6.07;4.23;;;12.30;99.90;;;;;;5034025;28;20494;-77
2022/09/26 04:06:43;;;;;;;5.00;4.00;;;12.30;99.90;;;;;;5033883;28;20437;-77
2022/09/26 04:09:10;;;;;;;5.63;5.23;;;12.30;99.90;;;;;;5034601;28;20573;-77
2022/09/26 04:11:38;;;;;;;4.40;4.00;;;12.30;99.90;;;;;;5034901;28;20453;-77
2022/09/26 04:14:04;;;;;;;5.53;3.73;;;12.30;99.90;;;;;;5034261;28;20524;-77
2022/09/26 04:16:31;;;;;;;7.77;4.43;;;12.20;99.90;;;;;;5034321;28;20446;-77
2022/09/26 04:18:58;;;;;;;4.53;4.13;;;12.20;99.90;;;;;;5034207;28;20425;-77
2022/09/26 04:21:27;;;;;;;5.93;4.40;;;12.20;99.90;;;;;;5034584;28;20431;-77
2022/09/26 04:23:54;;;;;;;5.17;4.67;;;12.20;99.90;;;;;;5034068;28;20533;-77
2022/09/26 04:26:23;;;;;;;4.90;3.97;;;12.20;99.90;;;;;;5034449;28;20968;-77
2022/09/26 04:28:53;;;;;;;4.33;3.93;;;12.20;99.90;;;;;;5033991;28;20455;-77
2022/09/26 04:31:21;;;;;;;6.00;4.70;;;12.20;99.90;;;;;;5034240;28;20500;-77
2022/09/26 04:33:48;;;;;;;8.37;4.97;;;12.10;99.90;;;;;;5036599;28;20510;-77
2022/09/26 04:36:17;;;;;;;10.43;4.80;;;12.00;99.90;;;;;;5041072;28;20824;-77
2022/09/26 04:38:44;;;;;;;7.00;4.50;;;12.00;99.90;;;;;;5040147;28;20453;-77
2022/09/26 04:41:12;;;;;;;5.30;4.13;;;11.90;99.90;;;;;;5039047;28;20440;-78
2022/09/26 04:43:40;;;;;;;9.50;4.40;;;11.90;99.90;;;;;;5035157;28;20490;-77
2022/09/26 04:46:10;;;;;;;12.47;4.77;;;11.90;99.90;;;;;;5035311;28;20875;-78
2022/09/26 04:48:37;;;;;;;5.47;4.93;;;11.90;99.90;;;;;;5034384;28;20432;-77
2022/09/26 04:51:07;;;;;;;7.87;5.10;;;11.90;99.90;;;;;;5034188;28;20505;-77
2022/09/26 04:53:34;;;;;;;6.20;5.50;;;11.90;99.90;;;;;;5034182;28;20463;-77
2022/09/26 04:56:01;;;;;;;5.40;4.33;;;11.90;99.90;;;;;;5034446;28;20446;-77
2022/09/26 04:58:30;;;;;;;6.83;5.50;;;11.80;99.90;;;;;;5033639;28;20508;-77
2022/09/26 05:01:01;;;;;;;5.80;5.20;;;11.80;99.90;;;;;;5033304;28;20498;-77
2022/09/26 05:03:29;;;;;;;5.53;4.60;;;11.80;99.90;;;;;;5033105;28;20478;-77
2022/09/26 05:05:56;;;;;;;6.83;6.03;;;12.10;99.90;;;;;;5033676;28;20450;-78
2022/09/26 05:08:23;;;;;;;6.27;4.90;;;11.70;99.90;;;;;;5034202;28;20526;-77
2022/09/26 05:10:53;;;;;;;10.77;5.57;;;11.80;99.90;;;;;;5035233;28;20454;-77
2022/09/26 05:13:21;;;;;;;5.43;4.93;;;11.80;99.90;;;;;;5035086;28;20999;-77
2022/09/26 05:15:52;;;;;;;5.97;4.63;;;11.80;99.90;;;;;;5044959;28;20478;-78
2022/09/26 05:18:20;;;;;;;5.50;5.00;;;11.80;99.90;;;;;;5036856;28;20447;-77
2022/09/26 05:20:49;;;;;;;7.60;5.50;;;11.70;99.90;;;;;;5037722;28;20421;-77
2022/09/26 05:26:18;;;;;;;10.07;5.03;;;11.70;99.90;;;;;;5037665;28;20466;-77
2022/09/26 05:26:21;;;;;;;9.20;5.00;;;11.70;99.90;;;;;;5037605;28;20419;-77
2022/09/26 05:28:50;;;;;;;9.20;6.10;;;11.70;99.90;;;;;;5037852;28;20422;-77
2022/09/26 05:31:17;;;;;;;7.50;5.23;;;11.60;99.90;;;;;;5037708;28;20463;-77
2022/09/26 05:33:45;;;;;;;6.80;5.00;;;11.60;99.90;;;;;;5037245;28;20906;-77
2022/09/26 05:36:13;;;;;;;6.17;5.60;;;11.60;99.90;;;;;;5038151;28;20421;-77
2022/09/26 05:38:40;;;;;;;14.13;12.10;;;11.70;99.90;;;;;;5037251;28;20451;-77
2022/09/26 05:41:06;;;;;;;10.57;8.30;;;11.60;99.90;;;;;;5035794;28;20435;-77
2022/09/26 05:43:33;;;;;;;7.30;5.60;;;11.60;99.90;;;;;;5036752;28;20222;-77
2022/09/26 05:46:02;;;;;;;7.73;6.13;;;11.70;99.90;;;;;;5036955;28;20215;-77
2022/09/26 05:48:31;;;;;;;8.03;7.23;;;11.80;99.90;;;;;;5036546;28;20455;-77
2022/09/26 05:51:01;;;;;;;8.43;5.87;;;11.70;99.90;;;;;;5037293;28;20493;-77
2022/09/26 05:53:29;;;;;;;7.90;6.37;;;11.70;99.90;;;;;;5037360;28;20470;-77
2022/09/26 05:55:56;;;;;;;8.00;7.20;;;11.70;99.90;;;;;;5037652;28;20837;-78
2022/09/26 05:58:23;;;;;;;7.73;6.80;;;11.70;99.90;;;;;;5037392;28;20862;-77
2022/09/26 06:00:50;;;;;;;7.27;5.93;;;11.70;99.90;;;;;;5036944;28;20453;-78
2022/09/26 06:03:17;;;;;;;8.40;6.30;;;11.70;99.90;;;;;;5036507;28;20477;-79
2022/09/26 06:05:44;;;;;;;8.68;6.15;;;11.70;99.90;;;;;;5036574;28;20963;-78
2022/09/26 06:08:11;;;;;;;13.20;7.73;;;11.70;99.90;;;;;;5038289;28;20294;-78
2022/09/26 06:10:39;;;;;;;10.40;6.83;;;11.80;99.90;;;;;;5038253;28;20453;-78
2022/09/26 06:13:07;;;;;;;7.07;6.37;;;11.70;99.90;;;;;;5037459;28;20968;-78
2022/09/26 06:15:34;;;;;;;6.47;5.87;;;11.70;99.90;;;;;;5037427;28;20425;-77
2022/09/26 06:18:03;;;;;;;10.50;6.93;;;11.70;99.90;;;;;;5037690;28;20875;-77
2022/09/26 06:20:31;;;;;;;10.10;6.93;;;11.70;99.90;;;;;;5038978;28;20842;-77
2022/09/26 06:22:57;;;;;;;7.70;6.50;;;11.70;99.90;;;;;;5038366;28;20508;-77
2022/09/26 06:25:25;;;;;;;8.53;6.17;;;11.80;99.90;;;;;;5038535;28;20540;-77
2022/09/26 06:27:56;;;;;;;8.87;7.67;;;11.90;99.90;;;;;;5038080;28;20457;-77
2022/09/26 06:30:24;;;;;;;7.10;6.50;;;11.90;99.90;;;;;;5037249;28;20827;-77
2022/09/26 06:32:51;;;;;;;8.63;6.73;;;11.90;99.90;;;;;;5038355;28;20805;-77
2022/09/26 06:35:19;;;;;;;8.07;6.87;;;12.00;99.90;;;;;;5037793;28;20815;-77
2022/09/26 06:37:45;;;;;;;7.10;6.40;;;12.00;99.90;;;;;;5036163;28;20541;-77
2022/09/26 06:40:12;;;;;;;6.37;5.87;;;12.00;99.90;;;;;;5035809;28;20852;-77
2022/09/26 06:42:39;;;;;;;13.50;6.03;;;12.00;99.90;;;;;;5036322;28;20428;-77
2022/09/26 06:45:09;;;;;;;12.50;6.93;;;12.00;99.90;;;;;;5037030;28;21008;-77
2022/09/26 06:47:37;;;;;;;10.90;7.10;;;12.00;99.90;;;;;;5036432;28;20949;-77
2022/09/26 06:50:04;;;;;;;6.27;5.67;;;12.10;99.90;;;;;;5036797;28;20421;-77
2022/09/26 06:52:33;;;;;;;8.07;6.07;;;12.20;99.90;;;;;;5036663;28;20455;-77
2022/09/26 06:55:01;;;;;;;8.83;5.90;;;12.20;99.90;;;;;;5036241;28;20505;-78
2022/09/26 06:57:28;;;;;;;6.33;5.57;;;12.20;99.90;;;;;;5036485;28;20449;-77
2022/09/26 06:59:55;;;;;;;6.10;5.50;;;12.20;99.90;;;;;;5036215;28;20455;-77
2022/09/26 07:02:25;;;;;;;7.47;6.10;;;12.30;99.90;;;;;;5036186;28;20450;-78
2022/09/26 07:04:52;;;;;;;8.60;6.97;;;12.40;99.90;;;;;;5104757;22;20499;-79
2022/09/26 07:07:19;;;;;;;12.20;7.73;;;12.40;99.90;;;;;;5080181;28;20445;-78
2022/09/26 07:09:46;;;;;;;9.53;7.50;;;12.50;99.90;;;;;;5078622;28;20445;-78
2022/09/26 07:12:14;;;;;;;12.93;5.97;;;12.50;99.90;;;;;;5078616;28;21024;-77
2022/09/26 07:14:44;;;;;;;9.30;6.13;;;12.70;99.90;;;;;;5077366;28;20435;-78
2022/09/26 07:17:15;;;;;;;7.77;5.60;;;12.70;99.90;;;;;;5078665;28;20403;-78
2022/09/26 07:19:44;;;;;;;5.50;5.00;;;12.70;99.90;;;;;;5077361;28;20429;-78
2022/09/26 07:22:19;;;;;;;6.83;5.23;;;12.80;99.90;;;;;;5078063;28;20792;-77
2022/09/26 07:24:47;;;;;;;8.00;5.37;;;12.80;99.90;;;;;;5077223;28;20454;-77
2022/09/26 07:27:15;;;;;;;7.60;6.13;;;12.90;99.90;;;;;;5078722;28;20449;-79
2022/09/26 07:29:42;;;;;;;11.03;5.77;;;12.90;73.00;;;;;;5079635;28;20494;-79
2022/09/26 07:32:09;;;;;;;10.53;5.37;;;13.00;1.00;;;;;;5079167;28;20452;-78
2022/09/26 07:34:36;;;;;;;7.17;6.00;;;13.10;6.40;;;;;;5078585;28;20519;-78
2022/09/26 07:37:03;;;;;;;10.50;6.10;;;13.20;1.00;;;;;;5078736;28;20445;-79
2022/09/26 07:39:30;;;;;;;5.63;5.13;;;13.20;1.00;;;;;;5079054;28;20419;-79
2022/09/26 07:41:57;;;;;;;6.90;5.50;;;13.30;1.00;;;;;;5080446;28;20505;-79
2022/09/26 07:44:23;;;;;;;8.40;6.20;;;13.30;99.90;;;;;;5077474;28;20468;-77
2022/09/26 07:52:21;;;;;;;6.63;5.93;;;13.40;31.10;;;;;;5077118;28;20770;-78
2022/09/26 07:54:48;;;;;;;6.90;5.13;;;13.40;1.00;;;;;;5077024;28;20461;-77
2022/09/26 07:57:15;;;;;;;8.20;4.63;;;13.50;99.90;;;;;;5076799;28;20444;-77
2022/09/26 07:59:42;;;;;;;5.23;4.73;;;13.60;1.00;;;;;;5079816;28;20452;-77
2022/09/26 08:02:23;;;;;;;5.87;4.90;;;13.70;99.90;;;;;;5086005;28;20854;-76
2022/09/26 08:04:49;;;;;;;7.00;5.07;;;13.70;1.00;;;;;;5082257;28;20538;-78
2022/09/26 08:07:16;;;;;;;5.53;4.50;;;13.80;1.00;;;;;;5079392;28;20448;-79
2022/09/26 08:09:44;;;;;;;5.90;5.10;;;13.90;99.90;;;;;;5088566;28;20453;-78
2022/09/26 08:12:10;;;;;;;7.80;4.63;;;14.00;99.90;;;;;;5095347;28;20439;-78
2022/09/26 08:14:38;;;;;;;5.30;4.07;;;14.10;1.00;;;;;;5095405;28;20461;-78
2022/09/26 08:17:05;;;;;;;4.73;4.03;;;14.20;99.90;;;;;;5086803;28;20445;-79
2022/09/26 08:19:31;;;;;;;11.93;7.13;;;14.20;99.90;;;;;;5077727;28;20465;-79
2022/09/26 08:21:58;;;;;;;8.93;4.43;;;14.20;99.90;;;;;;5076730;28;20423;-79
2022/09/26 08:24:25;;;;;;;5.03;4.53;;;14.30;99.90;;;;;;5076347;28;21026;-78
2022/09/26 08:26:55;;;;;;;6.60;4.20;;;14.30;99.90;;;;;;5077246;28;20445;-79
2022/09/26 08:29:22;;;;;;;4.20;3.90;;;14.30;6.80;;;;;;5078279;28;20444;-79
2022/09/26 08:31:50;;;;;;;6.50;3.93;;;14.30;1.00;;;;;;5077070;28;20449;-79
2022/09/26 08:34:17;;;;;;;4.67;3.90;;;14.30;1.00;;;;;;5076733;28;20468;-79
2022/09/26 08:36:43;;;;;;;7.93;4.50;;;14.50;1.00;;;;;;5076678;28;20555;-79
2022/09/26 08:39:10;;;;;;;4.40;4.10;;;14.50;1.00;;;;;;5077721;28;20449;-79
2022/09/26 08:41:49;;;;;;;6.40;4.37;;;14.50;1.00;;;;;;5082260;28;20476;-77
2022/09/26 08:44:31;;;;;;;4.60;4.10;;;14.50;99.90;;;;;;5086587;28;20465;-79
2022/09/26 08:47:01;;;;;;;5.87;3.83;;;14.60;1.00;;;;;;5078445;28;20428;-79
2022/09/26 08:49:49;;;;;;;4.40;3.60;;;14.50;1.00;;;;;;5079527;28;20441;-79
2022/09/26 08:52:28;;;;;;;5.00;4.60;;;14.40;1.00;;;;;;5076475;28;20425;-79
2022/09/26 08:54:57;;;;;;;4.07;3.77;;;14.50;1.00;;;;;;5078480;28;20526;-79
2022/09/26 08:57:37;;;;;;;5.80;4.30;;;14.60;1.00;;;;;;5077423;28;20459;-78
2022/09/26 09:00:17;;;;;;;4.60;2.23;;;14.80;99.90;;;;;;5089154;28;20429;-79
2022/09/26 09:02:51;;;;;;;2.93;2.40;;;15.00;99.90;;;;;;5091344;28;20465;-77
2022/09/26 09:05:22;;;;;;;6.50;2.60;;;15.00;99.90;;;;;;5092950;28;20484;-79
2022/09/26 09:07:52;;;;;;;3.40;2.63;;;15.10;99.90;;;;;;5091618;28;20425;-77
2022/09/26 09:10:25;;;;;;;5.20;3.47;;;15.20;99.90;;;;;;5078940;28;20888;-79
2022/09/26 09:12:59;;;;;;;6.33;3.50;;;15.20;99.90;;;;;;5077079;28;20445;-79
2022/09/26 09:15:40;;;;;;;4.93;3.53;;;15.80;1.00;;;;;;5077551;28;20482;-79
2022/09/26 09:18:18;;;;;;;3.20;2.50;;;15.50;1.00;;;;;;5086048;28;20413;-77
2022/09/26 09:20:55;;;;;;;3.10;2.23;;;15.50;99.90;;;;;;5092211;28;20451;-77
2022/09/26 09:23:44;;;;;;;2.80;2.60;;;15.70;99.90;;;;;;5091374;28;20428;-79
2022/09/26 09:26:17;;;;;;;4.20;2.53;;;15.50;8.20;;;;;;5082342;28;20491;-78
2022/09/26 09:29:07;;;;;;;3.13;2.93;;;15.20;80.90;;;;;;5083618;28;20815;-79
2022/09/26 09:31:38;;;;;;;3.50;2.37;;;15.00;33.30;;;;;;5081739;28;20440;-78
2022/09/26 09:34:10;;;;;;;4.50;2.70;;;15.10;99.90;;;;;;5080048;28;20465;-78
2022/09/26 09:36:41;;;;;;;3.10;2.80;;;15.10;35.30;;;;;;5082654;28;20437;-78
2022/09/26 09:39:14;;;;;;;3.70;1.83;;;15.40;99.90;;;;;;5076393;28;20433;-78
2022/09/26 09:41:46;;;;;;;2.40;1.90;;;15.40;1.00;;;;;;5076137;28;20433;-78
2022/09/26 09:44:29;;;;;;;3.23;2.17;;;15.50;65.80;;;;;;5076483;28;20472;-79
2022/09/26 09:46:58;;;;;;;4.20;2.00;;;15.60;1.00;;;;;;5080136;28;20490;-79
2022/09/26 09:49:25;;;;;;;4.70;2.10;;;15.60;1.00;;;;;;5076353;28;20452;-79
2022/09/26 09:52:07;;;;;;;3.40;2.07;;;15.60;1.00;;;;;;5075785;28;20445;-79
2022/09/26 09:54:48;;;;;;;2.07;1.67;;;15.70;99.90;;;;;;5075184;28;20888;-78
2022/09/26 09:57:47;;;;;;;1.73;1.60;;;15.80;1.00;;;;;;5075251;28;20424;-79
2022/09/26 10:00:16;;;;;;;1.67;1.57;;;15.80;1.00;;;;;;5074757;28;20478;-78
2022/09/26 10:02:58;;;;;;;5.10;2.03;;;16.00;99.90;;;;;;5075588;28;20449;-79
2022/09/26 10:05:35;;;;;;;1.90;1.80;;;16.00;1.00;;;;;;5079077;28;20515;-78
2022/09/26 10:08:08;;;;;;;2.57;2.37;;;16.00;1.00;;;;;;5090210;28;20424;-78
2022/09/26 10:10:40;;;;;;;2.33;2.10;;;16.10;59.80;;;;;;5095669;28;20863;-78
2022/09/26 10:13:09;;;;;;;2.80;2.30;;;16.20;1.00;;;;;;5090937;28;20436;-78
2022/09/26 10:15:42;;;;;;;9.30;6.43;;;16.10;1.00;;;;;;5079385;28;20452;-78
2022/09/26 10:18:15;;;;;;;7.43;5.90;;;16.10;1.00;;;;;;5078483;28;20491;-78
2022/09/26 10:20:51;;;;;;;3.80;2.07;;;16.30;1.00;;;;;;5084722;28;20437;-77
2022/09/26 10:23:23;;;;;;;2.93;1.87;;;16.50;1.00;;;;;;5081858;28;20433;-77
2022/09/26 10:25:58;;;;;;;2.93;1.80;;;16.30;1.00;;;;;;5079496;28;20460;-79
2022/09/26 10:28:30;;;;;;;4.07;1.70;;;16.40;1.00;;;;;;5077451;28;20483;-79
2022/09/26 10:31:07;;;;;;;4.93;1.90;;;16.40;1.00;;;;;;5078777;28;20479;-79
2022/09/26 10:33:37;;;;;;;4.30;1.43;;;16.50;1.00;;;;;;5078423;28;20472;-79
2022/09/26 10:36:17;;;;;;;1.83;1.73;;;16.60;1.00;;;;;;5079615;28;20445;-79
2022/09/26 10:41:43;;;;;;;3.90;1.87;;;16.90;1.00;;;;;;5078439;28;20409;-79
2022/09/26 10:44:26;;;;;;;3.63;1.80;;;16.80;1.00;;;;;;5077882;28;20464;-79
2022/09/26 10:46:57;;;;;;;2.17;1.40;;;16.60;1.00;;;;;;5076652;28;20575;-79
2022/09/26 10:49:35;;;;;;;3.53;2.07;;;16.60;1.00;;;;;;5078941;28;20436;-79
2022/09/26 10:52:08;;;;;;;2.20;1.97;;;16.70;1.00;;;;;;5078501;28;20512;-79
2022/09/26 10:54:42;;;;;;;6.60;1.87;;;16.60;1.00;;;;;;5079117;28;20552;-79
2022/09/26 10:57:19;;;;;;;1.97;1.77;;;16.70;1.00;;;;;;5077988;28;20429;-79
2022/09/26 10:59:48;;;;;;;5.23;2.67;;;16.70;1.00;;;;;;5078506;28;20433;-79
2022/09/26 11:02:20;;;;;;;5.43;2.20;;;16.70;1.00;;;;;;5078083;28;20452;-79
2022/09/26 11:07:41;;;;;;;8.63;2.37;;;16.60;1.00;;;;;;5078765;28;20408;-79
2022/09/26 11:10:11;;;;;;;4.97;1.40;;;16.50;1.00;;;;;;5092557;28;20516;-78
2022/09/26 11:12:40;;;;;;;3.80;2.20;;;16.30;1.00;;;;;;5094156;28;20505;-77
2022/09/26 11:15:09;;;;;;;5.43;2.70;;;16.20;1.00;;;;;;5089490;28;20538;-77
2022/09/26 11:17:43;;;;;;;4.17;1.87;;;16.20;1.00;;;;;;5090147;28;20444;-78
2022/09/26 11:20:19;;;;;;;2.47;2.27;;;16.10;1.00;;;;;;5086052;28;20479;-79
2022/09/26 11:22:52;;;;;;;3.63;2.13;;;16.20;1.00;;;;;;5080070;28;20457;-79
2022/09/26 11:25:24;;;;;;;3.53;2.37;;;16.20;1.00;;;;;;5078259;28;20530;-79
2022/09/26 11:27:54;;;;;;;10.80;2.97;;;16.40;2.00;;;;;;5078549;28;20444;-79
2022/09/26 11:30:24;;;;;;;10.10;1.93;;;16.40;1.00;;;;;;5077821;28;20432;-79
2022/09/26 11:32:53;;;;;;;2.20;2.00;;;16.20;1.00;;;;;;5078107;28;20845;-79
2022/09/26 11:35:32;;;;;;;4.47;2.50;;;16.40;1.00;;;;;;5078932;28;20476;-79
2022/09/26 11:38:10;;;;;;;2.80;2.30;;;16.40;1.00;;;;;;5078372;28;20429;-79
2022/09/26 11:41:01;;;;;;;6.20;2.57;;;16.40;1.00;;;;;;5086302;28;20426;-77
2022/09/26 11:43:39;;;;;;;4.63;2.60;;;16.50;1.00;;;;;;5093069;28;20417;-78
2022/09/26 11:46:20;;;;;;;5.30;2.20;;;16.40;1.00;;;;;;5094403;28;20460;-77
2022/09/26 11:49:02;;;;;;;3.53;1.80;;;16.40;1.00;;;;;;5094348;28;20433;-78
2022/09/26 11:51:44;;;;;;;3.97;2.40;;;16.40;1.00;;;;;;5088241;28;20429;-79
2022/09/26 11:54:57;;;;;;;5.50;1.80;;;16.40;1.00;;;;;;5087639;28;20465;-79
2022/09/26 11:57:37;;;;;;;6.73;2.97;;;16.50;1.00;;;;;;5045913;28;20491;-79
2022/09/26 12:00:11;;;;;;;2.00;1.90;;;16.70;1.00;;;;;;5084176;28;20757;-78
2022/09/26 12:03:05;;;;;;;2.90;1.60;;;16.40;1.00;;;;;;5081297;28;20519;-78
2022/09/26 12:05:44;;;;;;;1.90;1.80;;;16.50;1.00;;;;;;5080123;28;20468;-78
2022/09/26 12:08:24;;;;;;;1.60;1.50;;;16.60;1.00;;;;;;5079507;28;20532;-79
2022/09/26 12:10:59;;;;;;;4.87;3.40;;;16.50;1.00;;;;;;5079039;28;20425;-79
2022/09/26 12:13:34;;;;;;;3.90;3.50;;;16.40;1.00;;;;;;5087546;28;20403;-78
2022/09/26 12:16:11;;;;;;;6.40;3.67;;;16.40;1.00;;;;;;5091935;28;20459;-78
2022/09/26 12:18:47;;;;;;;3.73;2.80;;;16.40;1.00;;;;;;5086292;28;20889;-78
2022/09/26 12:21:24;;;;;;;3.13;2.70;;;16.40;1.00;;;;;;5079182;28;20433;-78
2022/09/26 12:23:55;;;;;;;7.43;2.63;;;16.50;1.00;;;;;;5078202;28;20468;-78
2022/09/26 12:26:30;;;;;;;2.03;1.93;;;16.60;1.00;;;;;;5082582;28;20507;-78
2022/09/26 12:29:15;;;;;;;6.83;3.37;;;16.80;1.00;;;;;;5078763;28;20432;-78
2022/09/26 12:32:04;;;;;;;4.57;2.23;;;16.90;1.00;;;;;;5077084;28;20403;-78
2022/09/26 12:34:45;;;;;;;5.13;2.90;;;17.10;1.00;;;;;;5076415;28;20471;-77
2022/09/26 12:37:40;;;;;;;5.33;2.00;;;17.00;1.00;;;;;;5076401;28;20429;-79
2022/09/26 12:40:30;;;;;;;5.07;3.93;;;16.90;1.00;;;;;;5076478;28;20454;-79
2022/09/26 12:43:24;;;;;;;6.53;2.70;;;16.70;1.00;;;;;;5077283;28;20433;-78
2022/09/26 12:46:12;;;;;;;7.23;2.30;;;16.70;1.00;;;;;;5073207;28;20457;-78
2022/09/26 12:48:54;;;;;;;2.40;1.97;;;16.70;1.00;;;;;;5076517;28;20482;-79
2022/09/26 12:51:32;;;;;;;2.47;1.87;;;16.80;1.00;;;;;;5078073;28;20465;-81
2022/09/26 12:54:18;;;;;;;2.17;1.97;;;17.00;1.00;;;;;;5076274;28;20439;-79
2022/09/26 12:56:54;;;;;;;2.00;1.50;;;17.10;1.00;;;;;;5076445;28;20424;-78
2022/09/26 12:59:51;;;;;;;6.00;2.30;;;17.20;1.00;;;;;;5076132;28;20499;-79
2022/09/26 13:03:01;;;;;;;3.40;2.40;;;17.20;1.00;;;;;;5076921;28;20483;-79
2022/09/26 13:05:43;;;;;;;2.03;1.70;;;17.10;1.00;;;;;;5068260;22;20507;-76
2022/09/26 13:08:16;;;;;;;3.87;2.57;;;17.10;1.00;;;;;;5053438;28;20487;-76
2022/09/26 13:11:00;;;;;;;4.43;2.27;;;17.00;1.00;;;;;;5053684;28;20430;-77
2022/09/26 13:14:04;;;;;;;3.20;3.00;;;16.80;1.00;;;;;;5053378;28;20430;-75
2022/09/26 13:16:42;;;;;;;6.03;2.67;;;16.60;1.00;;;;;;5033265;28;20430;-76
2022/09/26 13:19:21;;;;;;;2.73;2.47;;;16.60;1.00;;;;;;5033800;28;20418;-76
2022/09/26 13:21:54;;;;;;;5.13;2.63;;;16.60;1.00;;;;;;5033452;28;20530;-75
2022/09/26 13:24:24;;;;;;;5.37;2.37;;;16.50;1.00;;;;;;5032930;28;20481;-75
2022/09/26 13:26:59;;;;;;;8.30;4.50;;;16.60;1.00;;;;;;5032909;28;20474;-77
2022/09/26 13:29:32;;;;;;;4.53;3.17;;;16.70;1.00;;;;;;5033889;28;20938;-76
2022/09/26 13:32:11;;;;;;;4.17;2.90;;;16.70;1.00;;;;;;5033291;28;20427;-76
2022/09/26 13:34:43;;;;;;;5.73;3.07;;;16.70;1.00;;;;;;5032875;28;20524;-76
2022/09/26 13:37:19;;;;;;;4.30;2.90;;;16.70;1.00;;;;;;5032468;28;20430;-77